sensor_id;sensor_type;location;lat;lon;timestamp;pressure;altitude;pressure_sealevel;temperature;humidity
26937;BME280;14495;48.116;11.676;2023-08-08T00:01:02;95823.13;;;10.75;100.00
26937;BME280;14495;48.116;11.676;2023-08-08T00:03:28;95816.09;;;10.76;100.00
26937;BME280;14495;48.116;11.676;2023-08-08T00:05:54;95816.75;;;10.79;100.00
26937;BME280;14495;48.116;11.676;2023-08-08T00:08:19;95812.09;;;10.85;100.00
26937;BME280;14495;48.116;11.676;2023-08-08T00:10:44;95809.94;;;10.91;100.00
26937;BME280;14495;48.116;11.676;2023-08-08T00:13:10;95808.66;;;10.98;100.00
26937;BME280;14495;48.116;11.676;2023-08-08T00:15:35;95808.38;;;11.03;100.00
26937;BME280;14495;48.116;11.676;2023-08-08T00:18:01;95805.38;;;11.09;100.00
26937;BME280;14495;48.116;11.676;2023-08-08T00:20:39;95807.69;;;11.14;100.00
26937;BME280;14495;48.116;11.676;2023-08-08T00:23:06;95800.59;;;11.16;100.00
26937;BME280;14495;48.116;11.676;2023-08-08T00:25:32;95803.69;;;11.22;100.00
26937;BME280;14495;48.116;11.676;2023-08-08T00:27:57;95800.50;;;11.17;100.00
26937;BME280;14495;48.116;11.676;2023-08-08T00:30:22;95805.25;;;11.25;100.00
26937;BME280;14495;48.116;11.676;2023-08-08T00:32:50;95799.00;;;11.28;100.00
26937;BME280;14495;48.116;11.676;2023-08-08T00:35:15;95797.13;;;11.30;100.00
26937;BME280;14495;48.116;11.676;2023-08-08T00:37:41;95796.09;;;11.32;100.00
26937;BME280;14495;48.116;11.676;2023-08-08T00:40:07;95795.06;;;11.35;100.00
26937;BME280;14495;48.116;11.676;2023-08-08T00:42:32;95794.13;;;11.36;100.00
26937;BME280;14495;48.116;11.676;2023-08-08T00:44:58;95790.59;;;11.37;100.00
26937;BME280;14495;48.116;11.676;2023-08-08T00:47:32;95792.47;;;11.35;100.00
26937;BME280;14495;48.116;11.676;2023-08-08T00:49:58;95789.63;;;11.38;100.00
26937;BME280;14495;48.116;11.676;2023-08-08T00:52:24;95787.97;;;11.37;100.00
26937;BME280;14495;48.116;11.676;2023-08-08T00:54:53;95785.91;;;11.42;100.00
26937;BME280;14495;48.116;11.676;2023-08-08T00:57:18;95783.28;;;11.42;100.00
26937;BME280;14495;48.116;11.676;2023-08-08T00:59:44;95785.03;;;11.41;100.00
26937;BME280;14495;48.116;11.676;2023-08-08T01:02:10;95781.19;;;11.47;100.00
26937;BME280;14495;48.116;11.676;2023-08-08T01:04:36;95785.59;;;11.47;100.00
26937;BME280;14495;48.116;11.676;2023-08-08T01:07:36;95783.06;;;11.45;100.00
26937;BME280;14495;48.116;11.676;2023-08-08T01:10:00;95780.69;;;11.42;100.00
26937;BME280;14495;48.116;11.676;2023-08-08T01:12:38;95781.78;;;11.38;100.00
26937;BME280;14495;48.116;11.676;2023-08-08T01:15:06;95776.03;;;11.33;100.00
26937;BME280;14495;48.116;11.676;2023-08-08T01:17:33;95786.84;;;11.27;100.00
26937;BME280;14495;48.116;11.676;2023-08-08T01:19:59;95779.97;;;11.26;100.00
26937;BME280;14495;48.116;11.676;2023-08-08T01:22:31;95782.94;;;11.19;100.00
26937;BME280;14495;48.116;11.676;2023-08-08T01:25:00;95778.66;;;11.18;100.00
26937;BME280;14495;48.116;11.676;2023-08-08T01:27:26;95783.88;;;11.18;100.00
26937;BME280;14495;48.116;11.676;2023-08-08T01:29:54;95774.25;;;11.19;100.00
26937;BME280;14495;48.116;11.676;2023-08-08T01:32:19;95769.19;;;11.16;100.00
26937;BME280;14495;48.116;11.676;2023-08-08T01:34:45;95763.53;;;11.09;100.00
26937;BME280;14495;48.116;11.676;2023-08-08T01:37:24;95772.69;;;11.02;100.00
26937;BME280;14495;48.116;11.676;2023-08-08T01:39:54;95766.06;;;10.96;100.00
26937;BME280;14495;48.116;11.676;2023-08-08T01:42:21;95765.81;;;10.87;100.00
26937;BME280;14495;48.116;11.676;2023-08-08T01:44:50;95766.38;;;10.77;100.00
26937;BME280;14495;48.116;11.676;2023-08-08T01:47:15;95760.47;;;10.74;100.00
26937;BME280;14495;48.116;11.676;2023-08-08T01:49:41;95770.19;;;10.72;100.00
26937;BME280;14495;48.116;11.676;2023-08-08T01:52:06;95768.00;;;10.64;100.00
26937;BME280;14495;48.116;11.676;2023-08-08T01:54:32;95764.00;;;10.58;100.00
26937;BME280;14495;48.116;11.676;2023-08-08T01:56:57;95755.13;;;10.47;100.00
26937;BME280;14495;48.116;11.676;2023-08-08T01:59:22;95761.41;;;10.44;100.00
26937;BME280;14495;48.116;11.676;2023-08-08T02:01:48;95759.56;;;10.30;100.00
26937;BME280;14495;48.116;11.676;2023-08-08T02:04:13;95761.78;;;10.22;100.00
26937;BME280;14495;48.116;11.676;2023-08-08T02:06:39;95765.09;;;10.10;100.00
26937;BME280;14495;48.116;11.676;2023-08-08T02:09:04;95764.53;;;10.04;100.00
26937;BME280;14495;48.116;11.676;2023-08-08T02:11:29;95761.53;;;9.96;100.00
26937;BME280;14495;48.116;11.676;2023-08-08T02:13:57;95759.81;;;9.81;100.00
26937;BME280;14495;48.116;11.676;2023-08-08T02:16:22;95753.81;;;9.79;100.00
26937;BME280;14495;48.116;11.676;2023-08-08T02:18:48;95757.53;;;9.75;100.00
26937;BME280;14495;48.116;11.676;2023-08-08T02:21:13;95755.00;;;9.73;100.00
26937;BME280;14495;48.116;11.676;2023-08-08T02:23:39;95764.78;;;9.70;100.00
26937;BME280;14495;48.116;11.676;2023-08-08T02:26:04;95762.78;;;9.59;100.00
26937;BME280;14495;48.116;11.676;2023-08-08T02:28:30;95753.63;;;9.52;100.00
26937;BME280;14495;48.116;11.676;2023-08-08T02:30:55;95752.00;;;9.49;100.00
26937;BME280;14495;48.116;11.676;2023-08-08T02:33:20;95745.88;;;9.50;100.00
26937;BME280;14495;48.116;11.676;2023-08-08T02:35:46;95747.81;;;9.46;100.00
26937;BME280;14495;48.116;11.676;2023-08-08T02:38:11;95747.97;;;9.43;100.00
26937;BME280;14495;48.116;11.676;2023-08-08T02:40:37;95749.09;;;9.39;100.00
26937;BME280;14495;48.116;11.676;2023-08-08T02:43:03;95750.78;;;9.24;100.00
26937;BME280;14495;48.116;11.676;2023-08-08T02:45:29;95742.44;;;9.18;100.00
26937;BME280;14495;48.116;11.676;2023-08-08T02:47:54;95740.84;;;9.15;100.00
26937;BME280;14495;48.116;11.676;2023-08-08T02:50:22;95746.97;;;9.14;100.00
26937;BME280;14495;48.116;11.676;2023-08-08T02:52:47;95743.53;;;9.14;100.00
26937;BME280;14495;48.116;11.676;2023-08-08T02:55:13;95748.00;;;9.12;100.00
26937;BME280;14495;48.116;11.676;2023-08-08T02:57:39;95758.09;;;9.02;100.00
26937;BME280;14495;48.116;11.676;2023-08-08T03:00:05;95763.59;;;8.96;100.00
26937;BME280;14495;48.116;11.676;2023-08-08T03:02:30;95757.56;;;8.95;100.00
26937;BME280;14495;48.116;11.676;2023-08-08T03:04:56;95756.88;;;8.92;100.00
26937;BME280;14495;48.116;11.676;2023-08-08T03:07:24;95759.22;;;8.80;100.00
26937;BME280;14495;48.116;11.676;2023-08-08T03:09:49;95756.94;;;8.74;100.00
26937;BME280;14495;48.116;11.676;2023-08-08T03:12:15;95757.25;;;8.68;100.00
26937;BME280;14495;48.116;11.676;2023-08-08T03:14:42;95759.84;;;8.68;100.00
26937;BME280;14495;48.116;11.676;2023-08-08T03:17:08;95756.34;;;8.69;100.00
26937;BME280;14495;48.116;11.676;2023-08-08T03:19:33;95762.31;;;8.71;100.00
26937;BME280;14495;48.116;11.676;2023-08-08T03:21:58;95761.97;;;8.77;100.00
26937;BME280;14495;48.116;11.676;2023-08-08T03:24:24;95756.34;;;8.69;100.00
26937;BME280;14495;48.116;11.676;2023-08-08T03:26:49;95756.19;;;8.72;100.00
26937;BME280;14495;48.116;11.676;2023-08-08T03:29:14;95755.84;;;8.78;100.00
26937;BME280;14495;48.116;11.676;2023-08-08T03:31:40;95756.97;;;8.90;100.00
26937;BME280;14495;48.116;11.676;2023-08-08T03:34:05;95754.72;;;9.00;100.00
26937;BME280;14495;48.116;11.676;2023-08-08T03:36:30;95756.16;;;9.05;100.00
26937;BME280;14495;48.116;11.676;2023-08-08T03:38:58;95755.97;;;9.08;100.00
26937;BME280;14495;48.116;11.676;2023-08-08T03:41:24;95745.22;;;9.15;100.00
26937;BME280;14495;48.116;11.676;2023-08-08T03:43:49;95746.47;;;9.23;100.00
26937;BME280;14495;48.116;11.676;2023-08-08T03:46:17;95743.63;;;9.28;100.00
26937;BME280;14495;48.116;11.676;2023-08-08T03:48:42;95742.44;;;9.34;100.00
26937;BME280;14495;48.116;11.676;2023-08-08T03:51:07;95746.41;;;9.41;100.00
26937;BME280;14495;48.116;11.676;2023-08-08T03:53:33;95737.31;;;9.48;100.00
26937;BME280;14495;48.116;11.676;2023-08-08T03:55:58;95742.09;;;9.56;100.00
26937;BME280;14495;48.116;11.676;2023-08-08T03:58:24;95739.88;;;9.64;100.00
26937;BME280;14495;48.116;11.676;2023-08-08T04:00:49;95742.06;;;9.72;100.00
26937;BME280;14495;48.116;11.676;2023-08-08T04:03:20;95750.66;;;9.74;100.00
26937;BME280;14495;48.116;11.676;2023-08-08T04:05:47;95741.44;;;9.82;100.00
26937;BME280;14495;48.116;11.676;2023-08-08T04:08:15;95746.47;;;9.85;100.00
26937;BME280;14495;48.116;11.676;2023-08-08T04:10:41;95750.66;;;9.88;100.00
26937;BME280;14495;48.116;11.676;2023-08-08T04:13:06;95755.47;;;9.96;100.00
26937;BME280;14495;48.116;11.676;2023-08-08T04:15:32;95746.16;;;10.06;100.00
26937;BME280;14495;48.116;11.676;2023-08-08T04:17:57;95750.47;;;10.07;100.00
26937;BME280;14495;48.116;11.676;2023-08-08T04:20:22;95758.31;;;10.07;100.00
26937;BME280;14495;48.116;11.676;2023-08-08T04:22:48;95763.16;;;10.13;100.00
26937;BME280;14495;48.116;11.676;2023-08-08T04:25:14;95760.63;;;10.12;100.00
26937;BME280;14495;48.116;11.676;2023-08-08T04:27:40;95768.09;;;10.18;100.00
26937;BME280;14495;48.116;11.676;2023-08-08T04:30:06;95763.53;;;10.21;100.00
26937;BME280;14495;48.116;11.676;2023-08-08T04:32:31;95764.19;;;10.25;100.00
26937;BME280;14495;48.116;11.676;2023-08-08T04:34:59;95765.91;;;10.26;100.00
26937;BME280;14495;48.116;11.676;2023-08-08T04:37:24;95766.50;;;10.31;100.00
26937;BME280;14495;48.116;11.676;2023-08-08T04:39:50;95762.41;;;10.41;100.00
26937;BME280;14495;48.116;11.676;2023-08-08T04:42:15;95758.94;;;10.41;100.00
26937;BME280;14495;48.116;11.676;2023-08-08T04:44:40;95764.09;;;10.42;100.00
26937;BME280;14495;48.116;11.676;2023-08-08T04:47:07;95759.06;;;10.54;100.00
26937;BME280;14495;48.116;11.676;2023-08-08T04:49:33;95762.78;;;10.64;100.00
26937;BME280;14495;48.116;11.676;2023-08-08T04:51:58;95751.59;;;10.76;100.00
26937;BME280;14495;48.116;11.676;2023-08-08T04:54:26;95760.44;;;10.88;100.00
26937;BME280;14495;48.116;11.676;2023-08-08T04:56:55;95753.00;;;10.96;100.00
26937;BME280;14495;48.116;11.676;2023-08-08T04:59:20;95753.34;;;11.05;100.00
26937;BME280;14495;48.116;11.676;2023-08-08T05:01:48;95751.66;;;11.18;100.00
26937;BME280;14495;48.116;11.676;2023-08-08T05:04:14;95750.13;;;11.28;100.00
26937;BME280;14495;48.116;11.676;2023-08-08T05:06:40;95753.66;;;11.41;100.00
26937;BME280;14495;48.116;11.676;2023-08-08T05:09:05;95749.28;;;11.42;100.00
26937;BME280;14495;48.116;11.676;2023-08-08T05:11:31;95750.44;;;11.51;100.00
26937;BME280;14495;48.116;11.676;2023-08-08T05:13:57;95750.53;;;11.49;100.00
26937;BME280;14495;48.116;11.676;2023-08-08T05:16:22;95750.75;;;11.46;100.00
26937;BME280;14495;48.116;11.676;2023-08-08T05:18:49;95752.97;;;11.52;100.00
26937;BME280;14495;48.116;11.676;2023-08-08T05:21:15;95757.06;;;11.56;100.00
26937;BME280;14495;48.116;11.676;2023-08-08T05:23:42;95741.41;;;11.69;100.00
26937;BME280;14495;48.116;11.676;2023-08-08T05:26:07;95748.75;;;11.77;100.00
26937;BME280;14495;48.116;11.676;2023-08-08T05:28:33;95747.19;;;11.74;100.00
26937;BME280;14495;48.116;11.676;2023-08-08T05:30:58;95749.81;;;11.74;100.00
26937;BME280;14495;48.116;11.676;2023-08-08T05:33:24;95741.63;;;11.93;100.00
26937;BME280;14495;48.116;11.676;2023-08-08T05:35:49;95749.22;;;12.11;100.00
26937;BME280;14495;48.116;11.676;2023-08-08T05:38:15;95747.44;;;12.24;100.00
26937;BME280;14495;48.116;11.676;2023-08-08T05:40:41;95746.13;;;12.44;100.00
26937;BME280;14495;48.116;11.676;2023-08-08T05:43:07;95741.91;;;12.54;100.00
26937;BME280;14495;48.116;11.676;2023-08-08T05:45:33;95746.09;;;12.95;100.00
26937;BME280;14495;48.116;11.676;2023-08-08T05:48:01;95744.69;;;13.15;100.00
26937;BME280;14495;48.116;11.676;2023-08-08T05:50:27;95744.25;;;13.22;100.00
26937;BME280;14495;48.116;11.676;2023-08-08T05:53:06;95740.13;;;13.43;100.00
26937;BME280;14495;48.116;11.676;2023-08-08T05:55:32;95743.47;;;13.69;100.00
26937;BME280;14495;48.116;11.676;2023-08-08T05:57:58;95744.44;;;13.92;100.00
26937;BME280;14495;48.116;11.676;2023-08-08T06:00:24;95745.50;;;14.25;100.00
26937;BME280;14495;48.116;11.676;2023-08-08T06:02:49;95742.63;;;14.28;100.00
26937;BME280;14495;48.116;11.676;2023-08-08T06:05:19;95740.25;;;13.90;100.00
26937;BME280;14495;48.116;11.676;2023-08-08T06:07:46;95746.22;;;13.92;100.00
26937;BME280;14495;48.116;11.676;2023-08-08T06:10:11;95744.22;;;13.96;100.00
26937;BME280;14495;48.116;11.676;2023-08-08T06:12:37;95746.03;;;14.42;100.00
26937;BME280;14495;48.116;11.676;2023-08-08T06:15:03;95741.63;;;16.10;100.00
26937;BME280;14495;48.116;11.676;2023-08-08T06:17:29;95736.31;;;18.53;94.91
26937;BME280;14495;48.116;11.676;2023-08-08T06:19:57;95738.44;;;18.01;88.26
26937;BME280;14495;48.116;11.676;2023-08-08T06:22:23;95737.84;;;18.46;90.13
26937;BME280;14495;48.116;11.676;2023-08-08T06:24:48;95746.91;;;17.95;87.36
26937;BME280;14495;48.116;11.676;2023-08-08T06:27:14;95744.31;;;16.83;92.91
26937;BME280;14495;48.116;11.676;2023-08-08T06:29:39;95740.78;;;15.77;100.00
26937;BME280;14495;48.116;11.676;2023-08-08T06:32:05;95742.72;;;18.02;90.54
26937;BME280;14495;48.116;11.676;2023-08-08T06:34:30;95739.03;;;18.91;84.96
26937;BME280;14495;48.116;11.676;2023-08-08T06:36:56;95735.41;;;18.92;84.87
26937;BME280;14495;48.116;11.676;2023-08-08T06:39:21;95740.72;;;18.72;81.64
26937;BME280;14495;48.116;11.676;2023-08-08T06:41:47;95729.78;;;19.05;81.44
26937;BME280;14495;48.116;11.676;2023-08-08T06:44:12;95739.16;;;18.89;80.84
26937;BME280;14495;48.116;11.676;2023-08-08T06:46:38;95732.13;;;19.08;80.33
26937;BME280;14495;48.116;11.676;2023-08-08T06:49:03;95737.59;;;18.97;81.31
26937;BME280;14495;48.116;11.676;2023-08-08T06:51:29;95730.03;;;19.11;80.67
26937;BME280;14495;48.116;11.676;2023-08-08T06:53:55;95728.34;;;20.12;78.09
26937;BME280;14495;48.116;11.676;2023-08-08T06:56:20;95723.28;;;20.80;74.94
26937;BME280;14495;48.116;11.676;2023-08-08T06:58:48;95727.78;;;21.14;72.78
26937;BME280;14495;48.116;11.676;2023-08-08T07:01:14;95727.28;;;21.45;70.57
26937;BME280;14495;48.116;11.676;2023-08-08T07:03:39;95721.59;;;22.07;69.32
26937;BME280;14495;48.116;11.676;2023-08-08T07:06:05;95732.59;;;22.20;68.22
26937;BME280;14495;48.116;11.676;2023-08-08T07:08:33;95726.34;;;21.62;67.11
26937;BME280;14495;48.116;11.676;2023-08-08T07:10:59;95727.09;;;22.06;67.98
26937;BME280;14495;48.116;11.676;2023-08-08T07:13:25;95726.06;;;21.90;69.01
26937;BME280;14495;48.116;11.676;2023-08-08T07:15:51;95720.75;;;21.90;66.87
26937;BME280;14495;48.116;11.676;2023-08-08T07:18:17;95706.47;;;22.90;65.17
26937;BME280;14495;48.116;11.676;2023-08-08T07:20:42;95707.97;;;22.84;65.97
26937;BME280;14495;48.116;11.676;2023-08-08T07:23:10;95714.09;;;22.93;64.49
26937;BME280;14495;48.116;11.676;2023-08-08T07:25:36;95714.44;;;23.06;63.24
26937;BME280;14495;48.116;11.676;2023-08-08T07:28:01;95710.59;;;23.48;60.75
26937;BME280;14495;48.116;11.676;2023-08-08T07:30:26;95721.75;;;22.96;62.03
26937;BME280;14495;48.116;11.676;2023-08-08T07:32:52;95716.81;;;23.41;60.47
26937;BME280;14495;48.116;11.676;2023-08-08T07:35:17;95718.63;;;23.88;60.19
26937;BME280;14495;48.116;11.676;2023-08-08T07:37:43;95705.44;;;24.09;59.85
26937;BME280;14495;48.116;11.676;2023-08-08T07:40:19;95712.91;;;24.37;57.96
26937;BME280;14495;48.116;11.676;2023-08-08T07:42:48;95709.22;;;24.23;60.03
26937;BME280;14495;48.116;11.676;2023-08-08T07:45:15;95707.34;;;24.85;57.86
26937;BME280;14495;48.116;11.676;2023-08-08T07:47:41;95710.34;;;25.50;56.39
26937;BME280;14495;48.116;11.676;2023-08-08T07:50:07;95711.47;;;26.78;54.05
26937;BME280;14495;48.116;11.676;2023-08-08T07:52:36;95717.00;;;25.90;53.31
26937;BME280;14495;48.116;11.676;2023-08-08T07:55:03;95717.09;;;25.31;54.17
26937;BME280;14495;48.116;11.676;2023-08-08T07:57:29;95705.19;;;24.04;56.85
26937;BME280;14495;48.116;11.676;2023-08-08T07:59:58;95703.81;;;23.77;56.91
26937;BME280;14495;48.116;11.676;2023-08-08T08:02:32;95698.63;;;24.07;55.78
26937;BME280;14495;48.116;11.676;2023-08-08T08:04:57;95698.19;;;22.27;58.57
26937;BME280;14495;48.116;11.676;2023-08-08T08:07:22;95697.16;;;22.04;61.27
26937;BME280;14495;48.116;11.676;2023-08-08T08:09:50;95695.19;;;20.78;62.95
26937;BME280;14495;48.116;11.676;2023-08-08T08:12:15;95687.59;;;20.39;64.18
26937;BME280;14495;48.116;11.676;2023-08-08T08:14:41;95679.59;;;20.75;65.38
26937;BME280;14495;48.116;11.676;2023-08-08T08:17:06;95679.69;;;20.65;65.60
26937;BME280;14495;48.116;11.676;2023-08-08T08:19:31;95687.28;;;19.80;65.70
26937;BME280;14495;48.116;11.676;2023-08-08T08:21:57;95682.78;;;20.16;67.31
26937;BME280;14495;48.116;11.676;2023-08-08T08:24:22;95686.03;;;20.28;65.21
26937;BME280;14495;48.116;11.676;2023-08-08T08:26:48;95678.78;;;20.56;66.06
26937;BME280;14495;48.116;11.676;2023-08-08T08:29:14;95678.97;;;20.37;67.16
26937;BME280;14495;48.116;11.676;2023-08-08T08:31:40;95674.03;;;20.42;65.95
26937;BME280;14495;48.116;11.676;2023-08-08T08:34:06;95678.22;;;20.26;63.55
26937;BME280;14495;48.116;11.676;2023-08-08T08:36:31;95673.78;;;20.27;64.94
26937;BME280;14495;48.116;11.676;2023-08-08T08:38:57;95667.72;;;20.17;67.16
26937;BME280;14495;48.116;11.676;2023-08-08T08:41:28;95676.03;;;20.22;64.51
26937;BME280;14495;48.116;11.676;2023-08-08T08:43:55;95669.28;;;20.54;64.41
26937;BME280;14495;48.116;11.676;2023-08-08T08:46:26;95662.78;;;20.66;64.37
26937;BME280;14495;48.116;11.676;2023-08-08T08:48:54;95672.19;;;20.87;63.75
26937;BME280;14495;48.116;11.676;2023-08-08T08:51:21;95667.53;;;20.36;65.78
26937;BME280;14495;48.116;11.676;2023-08-08T08:53:47;95660.13;;;20.22;62.98
26937;BME280;14495;48.116;11.676;2023-08-08T08:56:16;95667.13;;;20.23;62.21
26937;BME280;14495;48.116;11.676;2023-08-08T08:58:44;95653.63;;;19.98;66.57
26937;BME280;14495;48.116;11.676;2023-08-08T09:01:10;95653.00;;;20.22;64.24
26937;BME280;14495;48.116;11.676;2023-08-08T09:03:36;95646.88;;;20.04;63.91
26937;BME280;14495;48.116;11.676;2023-08-08T09:06:03;95654.19;;;20.28;64.74
26937;BME280;14495;48.116;11.676;2023-08-08T09:08:29;95661.28;;;20.01;62.74
26937;BME280;14495;48.116;11.676;2023-08-08T09:10:57;95650.69;;;19.83;62.76
26937;BME280;14495;48.116;11.676;2023-08-08T09:13:24;95653.88;;;19.87;63.60
26937;BME280;14495;48.116;11.676;2023-08-08T09:15:53;95648.59;;;20.31;62.80
26937;BME280;14495;48.116;11.676;2023-08-08T09:18:18;95647.09;;;20.11;64.97
26937;BME280;14495;48.116;11.676;2023-08-08T09:20:54;95645.63;;;19.90;61.54
26937;BME280;14495;48.116;11.676;2023-08-08T09:23:20;95647.84;;;20.21;61.83
26937;BME280;14495;48.116;11.676;2023-08-08T09:25:45;95645.03;;;20.48;64.23
26937;BME280;14495;48.116;11.676;2023-08-08T09:28:10;95647.03;;;20.46;61.60
26937;BME280;14495;48.116;11.676;2023-08-08T09:30:41;95651.38;;;20.74;63.41
26937;BME280;14495;48.116;11.676;2023-08-08T09:33:07;95648.53;;;21.10;61.83
26937;BME280;14495;48.116;11.676;2023-08-08T09:35:37;95638.41;;;21.13;60.88
26937;BME280;14495;48.116;11.676;2023-08-08T09:38:03;95648.50;;;21.44;61.39
26937;BME280;14495;48.116;11.676;2023-08-08T09:40:28;95639.91;;;21.08;58.45
26937;BME280;14495;48.116;11.676;2023-08-08T09:42:56;95644.88;;;20.68;61.04
26937;BME280;14495;48.116;11.676;2023-08-08T09:45:22;95641.19;;;20.95;60.16
26937;BME280;14495;48.116;11.676;2023-08-08T09:47:50;95642.44;;;20.57;58.18
26937;BME280;14495;48.116;11.676;2023-08-08T09:50:18;95645.66;;;20.42;59.29
26937;BME280;14495;48.116;11.676;2023-08-08T09:52:46;95634.69;;;20.63;58.77
26937;BME280;14495;48.116;11.676;2023-08-08T09:55:12;95631.31;;;20.79;60.37
26937;BME280;14495;48.116;11.676;2023-08-08T09:57:38;95627.41;;;21.00;57.61
26937;BME280;14495;48.116;11.676;2023-08-08T10:00:05;95618.63;;;21.50;61.31
26937;BME280;14495;48.116;11.676;2023-08-08T10:02:35;95623.63;;;21.53;60.77
26937;BME280;14495;48.116;11.676;2023-08-08T10:05:03;95626.00;;;21.97;60.93
26937;BME280;14495;48.116;11.676;2023-08-08T10:07:29;95628.13;;;22.18;57.90
26937;BME280;14495;48.116;11.676;2023-08-08T10:09:56;95621.66;;;22.46;60.92
26937;BME280;14495;48.116;11.676;2023-08-08T10:12:23;95626.94;;;22.54;57.83
26937;BME280;14495;48.116;11.676;2023-08-08T10:14:51;95623.00;;;22.33;56.14
26937;BME280;14495;48.116;11.676;2023-08-08T10:17:18;95621.00;;;22.03;56.78
26937;BME280;14495;48.116;11.676;2023-08-08T10:20:10;95625.81;;;21.91;55.69
26937;BME280;14495;48.116;11.676;2023-08-08T10:22:44;95625.00;;;21.90;55.05
26937;BME280;14495;48.116;11.676;2023-08-08T10:25:25;95617.66;;;22.00;59.18
26937;BME280;14495;48.116;11.676;2023-08-08T10:28:03;95628.31;;;21.76;56.41
26937;BME280;14495;48.116;11.676;2023-08-08T10:30:40;95615.66;;;21.61;55.40
26937;BME280;14495;48.116;11.676;2023-08-08T10:33:15;95616.75;;;21.42;54.48
26937;BME280;14495;48.116;11.676;2023-08-08T10:35:53;95611.59;;;21.41;56.43
26937;BME280;14495;48.116;11.676;2023-08-08T10:38:18;95621.78;;;21.03;58.11
26937;BME280;14495;48.116;11.676;2023-08-08T10:40:46;95625.63;;;20.66;57.63
26937;BME280;14495;48.116;11.676;2023-08-08T10:43:11;95621.94;;;20.41;58.87
26937;BME280;14495;48.116;11.676;2023-08-08T10:45:41;95625.13;;;20.44;59.14
26937;BME280;14495;48.116;11.676;2023-08-08T10:48:09;95619.53;;;20.56;59.67
26937;BME280;14495;48.116;11.676;2023-08-08T10:50:40;95616.13;;;20.98;57.34
26937;BME280;14495;48.116;11.676;2023-08-08T10:53:08;95606.59;;;21.30;59.07
26937;BME280;14495;48.116;11.676;2023-08-08T10:55:35;95607.03;;;21.76;57.30
26937;BME280;14495;48.116;11.676;2023-08-08T11:00:34;95609.19;;;22.13;55.90
26937;BME280;14495;48.116;11.676;2023-08-08T11:03:01;95614.50;;;21.89;53.87
26937;BME280;14495;48.116;11.676;2023-08-08T11:05:35;95613.50;;;21.73;52.90
26937;BME280;14495;48.116;11.676;2023-08-08T11:08:05;95606.34;;;21.82;54.26
26937;BME280;14495;48.116;11.676;2023-08-08T11:10:41;95612.50;;;21.91;53.96
26937;BME280;14495;48.116;11.676;2023-08-08T11:13:08;95600.34;;;22.37;53.72
26937;BME280;14495;48.116;11.676;2023-08-08T11:15:37;95603.03;;;22.46;51.80
26937;BME280;14495;48.116;11.676;2023-08-08T11:18:03;95597.13;;;22.75;52.78
26937;BME280;14495;48.116;11.676;2023-08-08T11:20:30;95598.06;;;22.90;54.12
26937;BME280;14495;48.116;11.676;2023-08-08T11:22:59;95584.78;;;22.74;52.63
26937;BME280;14495;48.116;11.676;2023-08-08T11:25:29;95584.63;;;23.15;51.97
26937;BME280;14495;48.116;11.676;2023-08-08T11:27:56;95591.72;;;23.31;51.52
26937;BME280;14495;48.116;11.676;2023-08-08T11:30:29;95590.97;;;23.45;50.44
26937;BME280;14495;48.116;11.676;2023-08-08T11:32:54;95585.00;;;23.43;51.26
26937;BME280;14495;48.116;11.676;2023-08-08T11:35:24;95579.38;;;23.30;49.48
26937;BME280;14495;48.116;11.676;2023-08-08T11:37:52;95578.84;;;22.64;52.28
26937;BME280;14495;48.116;11.676;2023-08-08T11:40:18;95571.63;;;22.81;51.31
26937;BME280;14495;48.116;11.676;2023-08-08T11:42:45;95574.34;;;22.64;50.26
26937;BME280;14495;48.116;11.676;2023-08-08T11:45:12;95574.97;;;22.74;52.32
26937;BME280;14495;48.116;11.676;2023-08-08T11:47:41;95577.19;;;22.63;52.00
26937;BME280;14495;48.116;11.676;2023-08-08T11:50:09;95564.56;;;22.48;51.01
26937;BME280;14495;48.116;11.676;2023-08-08T11:52:42;95567.47;;;22.30;51.00
26937;BME280;14495;48.116;11.676;2023-08-08T11:55:09;95577.22;;;22.46;52.69
26937;BME280;14495;48.116;11.676;2023-08-08T11:57:36;95559.94;;;22.90;52.19
26937;BME280;14495;48.116;11.676;2023-08-08T12:00:06;95557.81;;;23.16;51.89
26937;BME280;14495;48.116;11.676;2023-08-08T12:02:33;95561.16;;;22.71;49.77
26937;BME280;14495;48.116;11.676;2023-08-08T12:05:10;95562.94;;;22.87;47.55
26937;BME280;14495;48.116;11.676;2023-08-08T12:07:37;95551.88;;;22.98;48.36
26937;BME280;14495;48.116;11.676;2023-08-08T12:10:06;95552.97;;;23.20;49.25
26937;BME280;14495;48.116;11.676;2023-08-08T12:12:38;95558.56;;;22.94;48.50
26937;BME280;14495;48.116;11.676;2023-08-08T12:15:06;95554.34;;;23.08;47.73
26937;BME280;14495;48.116;11.676;2023-08-08T12:17:36;95553.94;;;22.88;49.17
26937;BME280;14495;48.116;11.676;2023-08-08T12:20:04;95551.66;;;23.39;51.45
26937;BME280;14495;48.116;11.676;2023-08-08T12:22:34;95555.31;;;23.69;48.60
26937;BME280;14495;48.116;11.676;2023-08-08T12:24:59;95554.34;;;23.85;49.06
26937;BME280;14495;48.116;11.676;2023-08-08T12:27:25;95552.34;;;23.87;47.38
26937;BME280;14495;48.116;11.676;2023-08-08T12:29:53;95540.16;;;24.08;46.88
26937;BME280;14495;48.116;11.676;2023-08-08T12:32:21;95546.56;;;23.76;47.44
26937;BME280;14495;48.116;11.676;2023-08-08T12:34:50;95544.97;;;23.66;47.94
26937;BME280;14495;48.116;11.676;2023-08-08T12:37:17;95549.81;;;23.71;47.49
26937;BME280;14495;48.116;11.676;2023-08-08T12:39:43;95539.44;;;23.53;48.14
26937;BME280;14495;48.116;11.676;2023-08-08T12:42:10;95550.91;;;24.00;48.00
26937;BME280;14495;48.116;11.676;2023-08-08T12:44:38;95550.25;;;23.74;46.06
26937;BME280;14495;48.116;11.676;2023-08-08T12:47:04;95544.00;;;23.67;49.76
26937;BME280;14495;48.116;11.676;2023-08-08T12:49:29;95540.53;;;24.05;47.64